Main page
METAR-TAF:

METAR-TAF

Airports :

Half Moon Bay Airport

Half Moon Bay, California, United States

latitude: 37-30-48N, longitude: 122-30-04W, elevation: 66 ft

Current weather observation

The report was made 1 hour and 47 minutes ago, at 03:15 UTC
Wind 12 mph from the North/Northwest
Temperature 59°F
Humidity 100%
Pressure 30.02 in. Hg
Visibility: 8 miles
Overcast at a height of 500 ft

METAR: KHAF 180315Z AUTO 33010KT 8SM OVC005 15/15 A3002 RMK AO2

Time: 22:02 (05:02 UTC)


TAF: missing

Weather observations and forecasts of more than 4000 airports (METAR and TAF reports).

The available stations are represented by yellow and red dots on the map.

Hover mouse over dot to see the name of the station.

Then click to see weather observations and forecasts.

To change the map : click on the green buttons with a black cross to zoom in, on the green button with a dash to zoom out, or on the green arrows for adjacent maps.


METAR-TAF: